createdAt,value
2023-04-18T00:02:23.930Z,8.81
2023-04-18T00:04:55.251Z,8.78
2023-04-18T00:07:26.271Z,8.88
2023-04-18T00:09:58.287Z,8.60
2023-04-18T00:12:28.742Z,8.77
2023-04-18T00:14:59.944Z,8.91
2023-04-18T00:17:31.197Z,8.91
2023-04-18T00:20:03.161Z,9.17
2023-04-18T00:22:33.556Z,9.34
2023-04-18T00:25:05.755Z,9.44
2023-04-18T00:27:36.282Z,9.41
2023-04-18T00:30:07.106Z,9.39
2023-04-18T00:32:37.521Z,9.47
2023-04-18T00:35:08.755Z,9.68
2023-04-18T00:37:39.554Z,9.70
2023-04-18T00:40:12.864Z,9.71
2023-04-18T00:42:43.213Z,9.98
2023-04-18T00:45:14.160Z,10.12
2023-04-18T00:47:44.608Z,9.97
2023-04-18T00:50:15.930Z,9.87
2023-04-18T00:52:47.319Z,9.61
2023-04-18T00:55:20.107Z,9.42
2023-04-18T00:57:50.594Z,9.39
2023-04-18T01:00:21.242Z,9.46
2023-04-18T01:02:54.102Z,9.31
2023-04-18T01:05:25.350Z,9.45
2023-04-18T01:07:59.519Z,9.61
2023-04-18T01:10:33.163Z,9.64
2023-04-18T01:13:20.456Z,9.71
2023-04-18T01:15:52.345Z,9.79
2023-04-18T01:18:23.387Z,9.70
2023-04-18T01:20:54.641Z,9.94
2023-04-18T01:23:25.120Z,9.88
2023-04-18T01:25:57.185Z,10.21
2023-04-18T01:28:28.522Z,10.55
2023-04-18T01:30:58.966Z,10.65
2023-04-18T01:33:29.404Z,10.62
2023-04-18T01:35:59.828Z,10.61
2023-04-18T01:38:30.323Z,10.35
2023-04-18T01:41:03.059Z,10.25
2023-04-18T01:43:33.517Z,10.23
2023-04-18T01:46:03.936Z,10.24
2023-04-18T01:48:34.288Z,10.47
2023-04-18T01:51:04.697Z,10.78
2023-04-18T01:53:35.299Z,10.89
2023-04-18T01:56:07.631Z,11.04
2023-04-18T01:58:38.071Z,11.32
2023-04-18T02:01:08.717Z,11.30
2023-04-18T02:03:39.440Z,11.59
2023-04-18T02:06:11.198Z,11.62
2023-04-18T02:08:41.545Z,11.40
2023-04-18T02:11:13.539Z,11.28
2023-04-18T02:13:43.925Z,11.22
2023-04-18T02:16:15.468Z,11.28
2023-04-18T02:18:46.656Z,11.30
2023-04-18T02:21:17.089Z,11.56
2023-04-18T02:23:47.494Z,11.68
2023-04-18T02:26:19.546Z,11.66
2023-04-18T02:28:49.959Z,11.56
2023-04-18T02:31:20.435Z,11.48
2023-04-18T02:33:50.879Z,11.65
2023-04-18T02:36:22.379Z,11.73
2023-04-18T02:38:52.980Z,11.57
2023-04-18T02:41:25.178Z,11.68
2023-04-18T02:43:55.484Z,11.66
2023-04-18T02:46:25.913Z,11.65
2023-04-18T02:48:56.311Z,11.61
2023-04-18T02:51:27.624Z,11.65
2023-04-18T02:53:57.985Z,11.87
2023-04-18T02:56:29.986Z,12.04
2023-04-18T02:59:00.456Z,11.95
2023-04-18T03:01:31.054Z,12.05
2023-04-18T03:04:01.616Z,12.16
2023-04-18T03:06:32.890Z,12.15
2023-04-18T03:09:03.567Z,12.31
2023-04-18T03:11:35.757Z,12.19
2023-04-18T03:14:06.498Z,12.02
2023-04-18T03:16:37.438Z,11.88
2023-04-18T03:19:07.896Z,11.77
2023-04-18T03:21:41.675Z,12.06
2023-04-18T03:24:12.549Z,11.97
2023-04-18T03:26:44.757Z,11.86
2023-04-18T03:29:15.129Z,11.80
2023-04-18T03:31:46.435Z,11.93
2023-04-18T03:34:16.936Z,12.20
2023-04-18T03:36:48.242Z,12.28
2023-04-18T03:39:18.820Z,12.17
2023-04-18T03:41:52.982Z,12.24
2023-04-18T03:44:23.747Z,12.22
2023-04-18T03:46:54.944Z,12.28
2023-04-18T03:49:25.533Z,12.50
2023-04-18T03:51:56.069Z,12.52
2023-04-18T03:54:26.529Z,12.68
2023-04-18T03:57:01.791Z,12.89
2023-04-18T03:59:32.953Z,12.77
2023-04-18T04:02:03.654Z,12.83
2023-04-18T04:04:34.237Z,12.74
2023-04-18T04:07:04.802Z,12.70
2023-04-18T04:09:35.232Z,12.65
2023-04-18T04:12:07.795Z,12.75
2023-04-18T04:14:38.200Z,12.80
2023-04-18T04:17:08.943Z,12.88
2023-04-18T04:19:39.436Z,12.85
2023-04-18T04:22:10.031Z,12.95
2023-04-18T04:24:41.272Z,12.86
2023-04-18T04:27:16.276Z,12.84
2023-04-18T04:29:46.829Z,12.47
2023-04-18T04:32:17.737Z,12.29
2023-04-18T04:34:48.893Z,12.25
2023-04-18T04:37:19.484Z,12.25
2023-04-18T04:39:50.051Z,12.34
2023-04-18T04:42:26.105Z,12.17
2023-04-18T04:44:56.570Z,12.46
2023-04-18T04:47:27.080Z,12.45
2023-04-18T04:49:57.561Z,12.53
2023-04-18T04:52:28.114Z,12.61
2023-04-18T04:54:58.652Z,12.59
2023-04-18T04:57:30.818Z,12.40
2023-04-18T05:00:01.338Z,12.55
2023-04-18T05:02:31.920Z,12.56
2023-04-18T05:05:02.438Z,12.43
2023-04-18T05:07:33.621Z,12.31
2023-04-18T05:10:04.250Z,12.25
2023-04-18T05:12:36.372Z,12.30
2023-04-18T05:15:07.343Z,12.30
2023-04-18T05:17:38.240Z,12.41
2023-04-18T05:20:09.953Z,12.29
2023-04-18T05:22:40.410Z,12.72
2023-04-18T05:25:11.507Z,12.79
2023-04-18T05:27:44.048Z,12.80
2023-04-18T05:30:14.817Z,12.81
2023-04-18T05:32:45.543Z,13.02
2023-04-18T05:35:16.081Z,12.93
2023-04-18T05:37:46.586Z,12.81
2023-04-18T05:40:17.588Z,12.91
2023-04-18T05:42:49.751Z,12.97
2023-04-18T05:45:20.384Z,12.88
2023-04-18T05:47:50.978Z,12.87
2023-04-18T05:50:21.844Z,12.84
2023-04-18T05:52:52.901Z,13.02
2023-04-18T05:55:23.575Z,13.04
2023-04-18T05:57:55.768Z,12.86
2023-04-18T06:00:26.371Z,12.23
2023-04-18T06:02:56.907Z,11.77
2023-04-18T06:05:28.083Z,11.51
2023-04-18T06:07:58.900Z,11.28
2023-04-18T06:10:29.446Z,11.18
2023-04-18T06:13:01.768Z,11.04
2023-04-18T06:15:32.396Z,11.06
2023-04-18T06:18:02.952Z,10.98
2023-04-18T06:20:33.521Z,10.82
2023-04-18T06:23:04.076Z,10.66
2023-04-18T06:25:34.584Z,10.62
2023-04-18T06:28:06.756Z,10.55
2023-04-18T06:30:37.487Z,10.51
2023-04-18T06:33:11.201Z,10.31
2023-04-18T06:35:41.717Z,10.48
2023-04-18T06:38:14.115Z,10.39
2023-04-18T06:40:44.607Z,10.34
2023-04-18T06:43:16.719Z,10.22
2023-04-18T06:45:47.367Z,10.07
2023-04-18T06:48:17.972Z,9.98
2023-04-18T06:50:48.370Z,9.85
2023-04-18T06:53:19.020Z,9.72
2023-04-18T06:55:49.646Z,9.58
2023-04-18T06:58:21.757Z,9.43
2023-04-18T07:00:53.328Z,9.33
2023-04-18T07:03:24.011Z,9.37
2023-04-18T07:05:56.498Z,9.42
2023-04-18T07:08:27.004Z,9.47
2023-04-18T07:10:57.504Z,9.47
2023-04-18T07:13:29.646Z,9.47
2023-04-18T07:16:00.551Z,9.41
2023-04-18T07:18:38.123Z,9.34
2023-04-18T07:21:09.227Z,8.91
2023-04-18T07:23:39.788Z,8.96
2023-04-18T07:26:10.854Z,8.93
2023-04-18T07:28:42.849Z,8.94
2023-04-18T07:31:15.214Z,8.97
2023-04-18T07:33:48.389Z,9.02
2023-04-18T07:36:18.847Z,9.04
2023-04-18T07:38:49.335Z,9.06
2023-04-18T07:41:19.885Z,9.02
2023-04-18T07:43:51.982Z,8.98
2023-04-18T07:46:22.724Z,8.99
2023-04-18T07:48:53.297Z,8.98
2023-04-18T07:51:26.283Z,8.91
2023-04-18T07:53:56.667Z,8.92
2023-04-18T07:56:27.286Z,8.81
2023-04-18T07:58:59.282Z,8.74
2023-04-18T08:01:29.815Z,8.71
2023-04-18T08:04:02.593Z,8.62
2023-04-18T08:06:37.035Z,8.55
2023-04-18T08:09:07.619Z,8.43
2023-04-18T08:11:39.801Z,8.41
2023-04-18T08:14:11.919Z,8.33
2023-04-18T08:16:42.817Z,8.16
2023-04-18T08:19:13.757Z,8.33
2023-04-18T08:21:44.426Z,8.19
2023-04-18T08:24:14.810Z,8.08
2023-04-18T08:26:45.337Z,7.86
2023-04-18T08:29:17.441Z,7.64
2023-04-18T08:31:48.006Z,7.71
2023-04-18T08:34:18.582Z,7.68
2023-04-18T08:36:48.971Z,7.74
2023-04-18T08:39:19.442Z,7.67
2023-04-18T08:41:56.173Z,7.85
2023-04-18T08:44:28.278Z,7.82
2023-04-18T08:47:00.307Z,7.64
2023-04-18T08:49:31.642Z,8.01
2023-04-18T08:52:03.942Z,8.09
2023-04-18T08:54:34.706Z,7.74
2023-04-18T08:57:08.865Z,7.38
2023-04-18T08:59:43.801Z,6.90
2023-04-18T09:02:16.462Z,6.72
2023-04-18T09:04:50.300Z,6.77
2023-04-18T09:07:21.521Z,6.62
2023-04-18T09:09:58.190Z,6.26
2023-04-18T09:12:30.239Z,5.98
2023-04-18T09:15:13.454Z,5.83
2023-04-18T09:17:51.776Z,5.76
2023-04-18T09:20:41.797Z,5.95
2023-04-18T09:23:15.350Z,5.98
2023-04-18T09:25:57.051Z,5.86
2023-04-18T09:28:29.629Z,6.07
2023-04-18T09:31:10.050Z,5.82
2023-04-18T09:33:46.395Z,5.41
2023-04-18T09:36:25.927Z,5.02
2023-04-18T09:38:59.925Z,4.71
2023-04-18T09:41:31.433Z,4.23
2023-04-18T09:44:14.968Z,3.93
2023-04-18T09:46:50.450Z,3.56
2023-04-18T09:49:21.433Z,3.42
2023-04-18T09:51:55.703Z,3.29
2023-04-18T09:54:32.453Z,3.11
2023-04-18T09:57:06.213Z,2.91
2023-04-18T09:59:40.391Z,2.65
2023-04-18T10:02:21.691Z,2.57
2023-04-18T10:04:53.245Z,2.20
2023-04-18T10:07:27.734Z,2.27
2023-04-18T10:09:58.117Z,2.14
2023-04-18T10:12:30.646Z,1.99
2023-04-18T10:15:04.607Z,1.83
2023-04-18T10:17:56.274Z,1.70
2023-04-18T10:20:32.269Z,1.57
2023-04-18T10:23:38.041Z,1.46
2023-04-18T10:26:09.834Z,1.25
2023-04-18T10:29:04.696Z,1.38
2023-04-18T10:31:42.099Z,1.34
2023-04-18T10:34:20.432Z,1.28
2023-04-18T10:37:08.736Z,1.22
2023-04-18T10:39:59.000Z,1.14
2023-04-18T10:43:01.721Z,1.06
2023-04-18T10:45:37.224Z,0.97
2023-04-18T10:48:33.587Z,0.87
2023-04-18T10:51:24.665Z,0.83
2023-04-18T10:54:02.182Z,0.80
2023-04-18T10:56:34.368Z,0.81
2023-04-18T10:59:06.315Z,0.78
2023-04-18T11:01:40.448Z,0.85
2023-04-18T11:04:20.825Z,0.90
2023-04-18T11:07:00.474Z,1.06
2023-04-18T11:09:31.019Z,1.16
2023-04-18T11:12:11.781Z,1.17
2023-04-18T11:14:45.617Z,1.13
2023-04-18T11:17:20.424Z,1.06
2023-04-18T11:19:51.906Z,0.90
2023-04-18T11:22:26.705Z,0.86
2023-04-18T11:25:03.548Z,0.77
2023-04-18T11:27:34.216Z,0.60
2023-04-18T11:30:05.124Z,0.56
2023-04-18T11:32:38.093Z,0.53
2023-04-18T11:35:10.963Z,0.57
2023-04-18T11:37:46.466Z,0.59
2023-04-18T11:40:19.682Z,0.50
2023-04-18T11:42:53.137Z,0.47
2023-04-18T11:45:23.724Z,0.34
2023-04-18T11:47:59.549Z,0.26
2023-04-18T11:50:30.226Z,0.21
2023-04-18T11:53:03.902Z,0.22
2023-04-18T11:55:34.635Z,0.11
2023-04-18T11:58:05.198Z,-0.17
2023-04-18T12:00:44.367Z,-0.57
2023-04-18T12:03:20.410Z,-0.27
2023-04-18T12:06:02.390Z,-0.23
2023-04-18T12:08:37.623Z,-0.30
2023-04-18T12:11:08.183Z,-0.38
2023-04-18T12:13:38.664Z,-0.33
2023-04-18T12:16:12.283Z,-0.23
2023-04-18T12:18:43.189Z,-0.17
2023-04-18T12:21:18.198Z,-0.15
2023-04-18T12:23:50.268Z,-0.01
2023-04-18T12:26:25.497Z,0.01
2023-04-18T12:28:56.098Z,-0.01
2023-04-18T12:31:26.584Z,-0.12
2023-04-18T12:33:57.091Z,-0.39
2023-04-18T12:36:29.674Z,-0.33
2023-04-18T12:39:01.811Z,-0.43
2023-04-18T12:41:35.221Z,-0.39
2023-04-18T12:44:05.963Z,-0.39
2023-04-18T12:46:36.635Z,-0.39
2023-04-18T12:49:09.098Z,-0.45
2023-04-18T12:51:39.554Z,-0.54
2023-04-18T12:54:11.962Z,-0.60
2023-04-18T12:56:50.734Z,-0.61
2023-04-18T12:59:23.976Z,-0.65
2023-04-18T13:01:57.144Z,-0.55
2023-04-18T13:04:28.093Z,-0.62
2023-04-18T13:07:00.514Z,-0.75
2023-04-18T13:09:32.608Z,-0.67
2023-04-18T13:12:03.290Z,-0.72
2023-04-18T13:14:33.767Z,-0.82
2023-04-18T13:17:04.573Z,-0.90
2023-04-18T13:19:35.215Z,-0.92
2023-04-18T13:22:11.669Z,-1.11
2023-04-18T13:24:43.820Z,-1.68
2023-04-18T13:27:14.274Z,-1.29
2023-04-18T13:29:46.553Z,-1.23
2023-04-18T13:32:17.115Z,-1.22
2023-04-18T13:34:52.172Z,-1.32
2023-04-18T13:37:23.297Z,-1.37
2023-04-18T13:39:55.629Z,-1.43
2023-04-18T13:42:28.017Z,-1.45
2023-04-18T13:44:58.803Z,-1.40
2023-04-18T13:47:29.574Z,-1.29
2023-04-18T13:50:00.300Z,-1.32
2023-04-18T13:52:44.297Z,-1.26
2023-04-18T13:55:16.952Z,-1.23
2023-04-18T13:57:50.650Z,-1.24
2023-04-18T14:00:21.685Z,-1.33
2023-04-18T14:02:55.154Z,-1.50
2023-04-18T14:05:25.851Z,-1.61
2023-04-18T14:08:12.690Z,-1.59
2023-04-18T14:10:45.064Z,-1.55
2023-04-18T14:13:23.858Z,-1.57
2023-04-18T14:15:58.728Z,-1.68
2023-04-18T14:18:29.328Z,-1.62
2023-04-18T14:21:00.161Z,-1.52
2023-04-18T14:23:32.635Z,-1.46
2023-04-18T14:26:07.674Z,-1.47
2023-04-18T14:28:38.273Z,-1.62
2023-04-18T14:31:08.988Z,-1.74
2023-04-18T14:33:56.009Z,-1.81
2023-04-18T14:36:27.202Z,-1.82
2023-04-18T14:39:00.185Z,-1.80
2023-04-18T14:41:34.325Z,-1.84
2023-04-18T14:44:04.837Z,-1.81
2023-04-18T14:46:35.333Z,-1.83
2023-04-18T14:49:08.146Z,-1.91
2023-04-18T14:51:38.693Z,-1.91
2023-04-18T14:54:09.455Z,-2.14
2023-04-18T14:56:41.655Z,-1.94
2023-04-18T14:59:16.966Z,-1.97
2023-04-18T15:01:47.857Z,-1.96
2023-04-18T15:04:21.358Z,-1.83
2023-04-18T15:06:54.797Z,-1.81
2023-04-18T15:09:28.236Z,-1.85
2023-04-18T15:12:00.976Z,-1.82
2023-04-18T15:14:53.706Z,-1.62
2023-04-18T15:20:47.914Z,-1.78
2023-04-18T15:23:18.449Z,-1.75
2023-04-18T15:25:51.678Z,-1.87
2023-04-18T15:28:29.870Z,-2.02
2023-04-18T15:31:21.324Z,-2.20
2023-04-18T15:33:52.389Z,-2.14
2023-04-18T15:36:28.366Z,-2.15
2023-04-18T15:39:09.222Z,-2.08
2023-04-18T15:41:42.955Z,-1.99
2023-04-18T15:44:40.257Z,-2.10
2023-04-18T15:47:43.820Z,-2.13
2023-04-18T15:50:14.438Z,-2.24
2023-04-18T15:52:49.111Z,-2.23
2023-04-18T15:55:35.787Z,-2.36
2023-04-18T15:58:07.403Z,-2.56
2023-04-18T16:00:42.708Z,-2.50
2023-04-18T16:03:13.254Z,-2.45
2023-04-18T16:05:43.972Z,-2.39
2023-04-18T16:08:15.288Z,-2.39
2023-04-18T16:10:45.943Z,-2.33
2023-04-18T16:13:16.983Z,-2.25
2023-04-18T16:16:26.444Z,-2.25
2023-04-18T16:18:57.195Z,-2.34
2023-04-18T16:21:27.736Z,-2.50
2023-04-18T16:23:58.186Z,-2.64
2023-04-18T16:29:54.666Z,-2.78
2023-04-18T16:32:26.992Z,-2.87
2023-04-18T16:35:09.348Z,-3.11
2023-04-18T16:44:28.487Z,-2.98
2023-04-18T16:46:59.258Z,-3.08
2023-04-18T16:53:04.477Z,-3.18
2023-04-18T16:55:39.324Z,-3.15
2023-04-18T16:58:09.968Z,-3.04
2023-04-18T17:04:35.426Z,-3.06
2023-04-18T17:07:18.186Z,-3.12
2023-04-18T17:10:19.776Z,-3.28
2023-04-18T17:12:50.613Z,-3.40
2023-04-18T17:16:07.602Z,-3.56
2023-04-18T17:18:55.844Z,-4.04
2023-04-18T17:21:32.723Z,-3.55
2023-04-18T17:24:08.254Z,-3.49
2023-04-18T17:27:15.630Z,-3.50
2023-04-18T17:29:48.971Z,-3.52
2023-04-18T17:32:19.640Z,-3.68
2023-04-18T17:34:50.354Z,-3.86
2023-04-18T17:37:23.102Z,-3.42
2023-04-18T17:39:55.425Z,-3.73
2023-04-18T17:42:25.927Z,-3.31
2023-04-18T17:44:56.448Z,-3.25
2023-04-18T17:47:27.092Z,-3.18
2023-04-18T17:49:57.571Z,-3.21
2023-04-18T17:52:29.158Z,-3.33
2023-04-18T17:55:02.289Z,-3.40
2023-04-18T17:57:36.198Z,-3.44
2023-04-18T18:00:12.451Z,-3.43
2023-04-18T18:02:47.096Z,-3.54
2023-04-18T18:05:17.881Z,-3.51
2023-04-18T18:07:49.772Z,-3.55
2023-04-18T18:10:24.160Z,-3.55
2023-04-18T18:12:58.140Z,-3.51
2023-04-18T18:15:29.228Z,-3.55
2023-04-18T18:17:59.743Z,-3.65
2023-04-18T18:20:30.447Z,-3.62
2023-04-18T18:23:02.785Z,-3.56
2023-04-18T18:25:37.239Z,-3.70
2023-04-18T18:28:08.011Z,-3.56
2023-04-18T18:30:39.058Z,-3.38
2023-04-18T18:33:09.575Z,-3.32
2023-04-18T18:35:40.077Z,-3.39
2023-04-18T18:38:10.988Z,-3.33
2023-04-18T18:40:47.149Z,-3.37
2023-04-18T18:43:17.608Z,-3.50
2023-04-18T18:45:48.058Z,-3.68
2023-04-18T18:48:30.515Z,-3.79
2023-04-18T18:51:01.017Z,-3.86
2023-04-18T18:53:31.451Z,-3.92
2023-04-18T18:56:04.058Z,-3.91
2023-04-18T18:58:34.443Z,-4.07
2023-04-18T19:01:06.727Z,-3.90
2023-04-18T19:03:44.161Z,-3.93
2023-04-18T19:06:14.740Z,-4.01
2023-04-18T19:08:45.258Z,-3.96
2023-04-18T19:11:19.033Z,-4.10
2023-04-18T19:13:56.710Z,-4.20
2023-04-18T19:16:27.244Z,-4.23
2023-04-18T19:18:57.744Z,-4.24
2023-04-18T19:21:28.332Z,-4.20
2023-04-18T19:23:58.974Z,-4.12
2023-04-18T19:26:31.098Z,-4.05
2023-04-18T19:29:01.565Z,-4.00
2023-04-18T19:31:32.133Z,-3.97
2023-04-18T19:34:02.787Z,-3.92
2023-04-18T19:36:33.349Z,-3.96
2023-04-18T19:39:03.969Z,-4.05
2023-04-18T19:41:36.132Z,-3.87
2023-04-18T19:44:06.904Z,-3.67
2023-04-18T19:46:37.408Z,-3.54
2023-04-18T19:49:07.937Z,-3.52
2023-04-18T19:51:38.553Z,-3.42
2023-04-18T19:54:09.438Z,-3.19
2023-04-18T19:56:41.648Z,-3.18
2023-04-18T19:59:12.212Z,-3.32
2023-04-18T20:01:43.308Z,-3.36
2023-04-18T20:04:13.732Z,-3.43
2023-04-18T20:06:44.597Z,-3.45
2023-04-18T20:09:17.479Z,-3.37
2023-04-18T20:11:49.866Z,-3.43
2023-04-18T20:14:20.627Z,-3.44
2023-04-18T20:16:51.269Z,-3.41
2023-04-18T20:19:21.838Z,-3.37
2023-04-18T20:21:52.435Z,-3.23
2023-04-18T20:24:24.568Z,-3.05
2023-04-18T20:26:56.637Z,-2.81
2023-04-18T20:29:27.044Z,-2.44
2023-04-18T20:31:57.487Z,-2.04
2023-04-18T20:34:27.864Z,-1.65
2023-04-18T20:36:58.961Z,-1.40
2023-04-18T20:39:29.341Z,-1.29
2023-04-18T20:42:04.851Z,-1.19
2023-04-18T20:44:36.911Z,-0.92
2023-04-18T20:47:07.366Z,-0.73
2023-04-18T20:49:37.793Z,-0.57
2023-04-18T20:52:11.347Z,-0.43
2023-04-18T20:54:42.333Z,-0.12
2023-04-18T20:57:14.314Z,0.13
2023-04-18T20:59:44.718Z,0.34
2023-04-18T21:02:15.312Z,0.67
2023-04-18T21:04:47.529Z,0.82
2023-04-18T21:07:18.032Z,0.84
2023-04-18T21:09:48.526Z,0.91
2023-04-18T21:12:20.485Z,0.83
2023-04-18T21:14:51.834Z,0.80
2023-04-18T21:17:22.288Z,0.83
2023-04-18T21:19:52.883Z,0.88
2023-04-18T21:22:23.423Z,0.94
2023-04-18T21:24:53.950Z,0.88
2023-04-18T21:27:26.053Z,0.82
2023-04-18T21:29:56.748Z,1.06
2023-04-18T21:32:27.244Z,1.31
2023-04-18T21:35:01.783Z,1.60
2023-04-18T21:37:32.560Z,2.00
2023-04-18T21:40:04.508Z,2.19
2023-04-18T21:42:37.248Z,2.47
2023-04-18T21:45:08.538Z,2.64
2023-04-18T21:47:39.102Z,2.81
2023-04-18T21:50:10.904Z,3.14
2023-04-18T21:52:41.355Z,3.32
2023-04-18T21:55:12.439Z,3.58
2023-04-18T21:57:44.456Z,3.70
2023-04-18T22:00:15.924Z,3.92
2023-04-18T22:02:46.609Z,4.15
2023-04-18T22:05:17.105Z,4.40
2023-04-18T22:07:57.498Z,4.74
2023-04-18T22:10:28.721Z,4.93
2023-04-18T22:13:00.971Z,4.99
2023-04-18T22:15:31.377Z,5.09
2023-04-18T22:18:02.066Z,5.18
2023-04-18T22:20:34.337Z,5.28
2023-04-18T22:23:05.421Z,5.51
2023-04-18T22:25:35.787Z,5.52
2023-04-18T22:28:07.858Z,5.52
2023-04-18T22:30:38.450Z,5.61
2023-04-18T22:33:08.928Z,5.76
2023-04-18T22:35:39.345Z,5.92
2023-04-18T22:38:11.001Z,6.18
2023-04-18T22:40:41.526Z,6.61
2023-04-18T22:43:13.502Z,6.91
2023-04-18T22:45:43.967Z,6.90
2023-04-18T22:48:14.402Z,7.31
2023-04-18T22:50:44.872Z,7.32
2023-04-18T22:53:16.798Z,7.57
2023-04-18T22:55:47.804Z,7.91
2023-04-18T22:58:19.815Z,8.15
2023-04-18T23:00:50.249Z,8.36
2023-04-18T23:03:20.824Z,8.52
2023-04-18T23:05:51.658Z,8.66
2023-04-18T23:08:23.552Z,8.62
2023-04-18T23:10:53.990Z,8.39
2023-04-18T23:13:26.114Z,8.25
2023-04-18T23:15:56.630Z,8.13
2023-04-18T23:18:27.177Z,8.47
2023-04-18T23:20:57.581Z,8.54
2023-04-18T23:23:28.004Z,8.68
2023-04-18T23:26:01.631Z,8.67
2023-04-18T23:28:33.809Z,8.76
2023-04-18T23:31:04.294Z,8.94
2023-04-18T23:33:34.752Z,9.07
2023-04-18T23:36:05.156Z,9.16
2023-04-18T23:38:38.005Z,9.41
2023-04-18T23:41:08.506Z,9.62
2023-04-18T23:43:40.548Z,9.81
2023-04-18T23:46:11.045Z,10.04
2023-04-18T23:48:41.462Z,9.88
2023-04-18T23:51:12.038Z,9.83
2023-04-18T23:53:42.446Z,9.82
2023-04-18T23:56:12.905Z,9.72
2023-04-18T23:58:44.909Z,9.59
